sensor_id;sensor_type;location;lat;lon;timestamp;P1;durP1;ratioP1;P2;durP2;ratioP2
46899;SDS011;32647;49.382;7.078;2024-02-04T00:02:03;1289.88;;;999.90;;
46899;SDS011;32647;49.382;7.078;2024-02-04T00:04:50;1297.65;;;999.90;;
46899;SDS011;32647;49.382;7.078;2024-02-04T00:07:36;1296.65;;;999.90;;
46899;SDS011;32647;49.382;7.078;2024-02-04T00:10:22;1301.90;;;999.90;;
46899;SDS011;32647;49.382;7.078;2024-02-04T00:13:08;1298.97;;;999.90;;
46899;SDS011;32647;49.382;7.078;2024-02-04T00:15:54;1308.60;;;999.90;;
46899;SDS011;32647;49.382;7.078;2024-02-04T00:18:40;1306.40;;;999.90;;
46899;SDS011;32647;49.382;7.078;2024-02-04T00:21:26;1303.38;;;999.90;;
46899;SDS011;32647;49.382;7.078;2024-02-04T00:24:12;1302.57;;;999.90;;
46899;SDS011;32647;49.382;7.078;2024-02-04T00:26:58;1307.22;;;999.90;;
46899;SDS011;32647;49.382;7.078;2024-02-04T00:29:44;1318.97;;;999.90;;
46899;SDS011;32647;49.382;7.078;2024-02-04T00:32:30;1320.15;;;999.90;;
46899;SDS011;32647;49.382;7.078;2024-02-04T00:35:16;1321.30;;;999.90;;
46899;SDS011;32647;49.382;7.078;2024-02-04T00:38:02;1330.97;;;999.90;;
46899;SDS011;32647;49.382;7.078;2024-02-04T00:40:48;1327.88;;;999.90;;
46899;SDS011;32647;49.382;7.078;2024-02-04T00:43:34;1325.32;;;999.90;;
46899;SDS011;32647;49.382;7.078;2024-02-04T00:46:20;1332.15;;;999.90;;
46899;SDS011;32647;49.382;7.078;2024-02-04T00:49:06;1330.45;;;999.90;;
46899;SDS011;32647;49.382;7.078;2024-02-04T00:51:52;1326.57;;;999.90;;
46899;SDS011;32647;49.382;7.078;2024-02-04T00:54:38;1328.97;;;999.90;;
46899;SDS011;32647;49.382;7.078;2024-02-04T00:57:24;1327.25;;;999.90;;
46899;SDS011;32647;49.382;7.078;2024-02-04T01:00:10;1330.55;;;999.90;;
46899;SDS011;32647;49.382;7.078;2024-02-04T01:02:58;1326.40;;;999.90;;
46899;SDS011;32647;49.382;7.078;2024-02-04T01:05:44;1328.00;;;999.90;;
46899;SDS011;32647;49.382;7.078;2024-02-04T01:08:30;1327.60;;;999.90;;
46899;SDS011;32647;49.382;7.078;2024-02-04T01:11:16;1329.53;;;999.90;;
46899;SDS011;32647;49.382;7.078;2024-02-04T01:14:02;1338.78;;;999.90;;
46899;SDS011;32647;49.382;7.078;2024-02-04T01:16:48;1340.78;;;999.90;;
46899;SDS011;32647;49.382;7.078;2024-02-04T01:19:33;1343.22;;;999.90;;
46899;SDS011;32647;49.382;7.078;2024-02-04T01:22:19;1341.40;;;999.90;;
46899;SDS011;32647;49.382;7.078;2024-02-04T01:25:10;1344.13;;;999.90;;
46899;SDS011;32647;49.382;7.078;2024-02-04T01:27:56;1348.20;;;999.90;;
46899;SDS011;32647;49.382;7.078;2024-02-04T01:30:42;1350.80;;;999.90;;
46899;SDS011;32647;49.382;7.078;2024-02-04T01:33:28;1350.18;;;999.90;;
46899;SDS011;32647;49.382;7.078;2024-02-04T01:36:14;1358.75;;;999.90;;
46899;SDS011;32647;49.382;7.078;2024-02-04T01:39:00;1364.72;;;999.90;;
46899;SDS011;32647;49.382;7.078;2024-02-04T01:41:46;1365.20;;;999.90;;
46899;SDS011;32647;49.382;7.078;2024-02-04T01:44:32;1373.55;;;999.90;;
46899;SDS011;32647;49.382;7.078;2024-02-04T01:47:18;1376.57;;;999.90;;
46899;SDS011;32647;49.382;7.078;2024-02-04T01:50:05;1378.25;;;999.90;;
46899;SDS011;32647;49.382;7.078;2024-02-04T01:52:52;1381.70;;;999.90;;
46899;SDS011;32647;49.382;7.078;2024-02-04T01:55:39;1375.70;;;999.90;;
46899;SDS011;32647;49.382;7.078;2024-02-04T01:58:25;1380.47;;;999.90;;
46899;SDS011;32647;49.382;7.078;2024-02-04T02:01:12;1379.85;;;999.90;;
46899;SDS011;32647;49.382;7.078;2024-02-04T02:03:58;1377.05;;;999.90;;
46899;SDS011;32647;49.382;7.078;2024-02-04T02:06:45;1369.78;;;999.90;;
46899;SDS011;32647;49.382;7.078;2024-02-04T02:09:31;1377.20;;;999.90;;
46899;SDS011;32647;49.382;7.078;2024-02-04T02:12:18;1379.07;;;999.90;;
46899;SDS011;32647;49.382;7.078;2024-02-04T02:15:16;1374.57;;;999.90;;
46899;SDS011;32647;49.382;7.078;2024-02-04T02:18:10;1381.18;;;999.90;;
46899;SDS011;32647;49.382;7.078;2024-02-04T02:24:32;1378.78;;;999.90;;
46899;SDS011;32647;49.382;7.078;2024-02-04T02:27:23;1385.43;;;999.90;;
46899;SDS011;32647;49.382;7.078;2024-02-04T02:30:09;1388.43;;;999.90;;
46899;SDS011;32647;49.382;7.078;2024-02-04T02:32:56;1392.50;;;999.90;;
46899;SDS011;32647;49.382;7.078;2024-02-04T02:35:43;1388.70;;;999.90;;
46899;SDS011;32647;49.382;7.078;2024-02-04T02:38:44;1383.35;;;999.90;;
46899;SDS011;32647;49.382;7.078;2024-02-04T02:41:38;1385.25;;;999.90;;
46899;SDS011;32647;49.382;7.078;2024-02-04T02:44:26;1388.78;;;999.90;;
46899;SDS011;32647;49.382;7.078;2024-02-04T02:47:16;1392.97;;;999.90;;
46899;SDS011;32647;49.382;7.078;2024-02-04T02:50:04;1405.10;;;999.90;;
46899;SDS011;32647;49.382;7.078;2024-02-04T02:52:51;1408.90;;;999.90;;
46899;SDS011;32647;49.382;7.078;2024-02-04T02:55:37;1405.85;;;999.90;;
46899;SDS011;32647;49.382;7.078;2024-02-04T02:58:23;1407.28;;;999.90;;
46899;SDS011;32647;49.382;7.078;2024-02-04T03:01:09;1402.88;;;999.90;;
46899;SDS011;32647;49.382;7.078;2024-02-04T03:03:55;1401.47;;;999.90;;
46899;SDS011;32647;49.382;7.078;2024-02-04T03:06:41;1406.00;;;999.90;;
46899;SDS011;32647;49.382;7.078;2024-02-04T03:09:27;1405.75;;;999.90;;
46899;SDS011;32647;49.382;7.078;2024-02-04T03:12:13;1409.90;;;999.90;;
46899;SDS011;32647;49.382;7.078;2024-02-04T03:14:59;1413.57;;;999.90;;
46899;SDS011;32647;49.382;7.078;2024-02-04T03:17:45;1419.40;;;999.90;;
46899;SDS011;32647;49.382;7.078;2024-02-04T03:20:31;1417.43;;;999.90;;
46899;SDS011;32647;49.382;7.078;2024-02-04T03:23:17;1419.22;;;999.90;;
46899;SDS011;32647;49.382;7.078;2024-02-04T03:26:03;1420.95;;;999.90;;
46899;SDS011;32647;49.382;7.078;2024-02-04T03:28:49;1417.60;;;999.90;;
46899;SDS011;32647;49.382;7.078;2024-02-04T03:31:35;1418.50;;;999.90;;
46899;SDS011;32647;49.382;7.078;2024-02-04T03:34:20;1416.65;;;999.90;;
46899;SDS011;32647;49.382;7.078;2024-02-04T03:37:07;1419.20;;;999.90;;
46899;SDS011;32647;49.382;7.078;2024-02-04T03:39:53;1418.15;;;999.90;;
46899;SDS011;32647;49.382;7.078;2024-02-04T03:42:39;1419.18;;;999.90;;
46899;SDS011;32647;49.382;7.078;2024-02-04T03:45:25;1413.88;;;999.90;;
46899;SDS011;32647;49.382;7.078;2024-02-04T03:48:11;1414.18;;;999.90;;
46899;SDS011;32647;49.382;7.078;2024-02-04T03:50:57;1420.72;;;999.90;;
46899;SDS011;32647;49.382;7.078;2024-02-04T03:53:44;1422.53;;;999.90;;
46899;SDS011;32647;49.382;7.078;2024-02-04T03:56:30;1420.30;;;999.90;;
46899;SDS011;32647;49.382;7.078;2024-02-04T03:59:16;1421.95;;;999.90;;
46899;SDS011;32647;49.382;7.078;2024-02-04T04:02:02;1412.13;;;999.90;;
46899;SDS011;32647;49.382;7.078;2024-02-04T04:04:48;1416.57;;;999.90;;
46899;SDS011;32647;49.382;7.078;2024-02-04T04:07:34;1410.97;;;999.90;;
46899;SDS011;32647;49.382;7.078;2024-02-04T04:10:20;1415.78;;;999.90;;
46899;SDS011;32647;49.382;7.078;2024-02-04T04:13:06;1421.13;;;999.90;;
46899;SDS011;32647;49.382;7.078;2024-02-04T04:15:53;1412.75;;;999.90;;
46899;SDS011;32647;49.382;7.078;2024-02-04T04:18:39;1417.90;;;999.90;;
46899;SDS011;32647;49.382;7.078;2024-02-04T04:21:25;1418.55;;;999.90;;
46899;SDS011;32647;49.382;7.078;2024-02-04T04:24:11;1418.97;;;999.90;;
46899;SDS011;32647;49.382;7.078;2024-02-04T04:26:57;1420.22;;;999.90;;
46899;SDS011;32647;49.382;7.078;2024-02-04T04:29:43;1416.65;;;999.90;;
46899;SDS011;32647;49.382;7.078;2024-02-04T04:32:29;1425.60;;;999.90;;
46899;SDS011;32647;49.382;7.078;2024-02-04T04:35:16;1432.20;;;999.90;;
46899;SDS011;32647;49.382;7.078;2024-02-04T04:38:02;1431.30;;;999.90;;
46899;SDS011;32647;49.382;7.078;2024-02-04T04:40:48;1432.07;;;999.90;;
46899;SDS011;32647;49.382;7.078;2024-02-04T04:43:36;1429.40;;;999.90;;
46899;SDS011;32647;49.382;7.078;2024-02-04T04:46:23;1430.18;;;999.90;;
46899;SDS011;32647;49.382;7.078;2024-02-04T04:49:09;1431.20;;;999.90;;
46899;SDS011;32647;49.382;7.078;2024-02-04T04:51:55;1428.00;;;999.90;;
46899;SDS011;32647;49.382;7.078;2024-02-04T04:54:41;1432.10;;;999.90;;
46899;SDS011;32647;49.382;7.078;2024-02-04T04:57:27;1434.63;;;999.90;;
46899;SDS011;32647;49.382;7.078;2024-02-04T05:00:13;1429.85;;;999.90;;
46899;SDS011;32647;49.382;7.078;2024-02-04T05:03:00;1430.05;;;999.90;;
46899;SDS011;32647;49.382;7.078;2024-02-04T05:05:46;1438.40;;;999.90;;
46899;SDS011;32647;49.382;7.078;2024-02-04T05:08:32;1434.30;;;999.90;;
46899;SDS011;32647;49.382;7.078;2024-02-04T05:11:18;1436.65;;;999.90;;
46899;SDS011;32647;49.382;7.078;2024-02-04T05:14:04;1436.78;;;999.90;;
46899;SDS011;32647;49.382;7.078;2024-02-04T05:16:49;1438.85;;;999.90;;
46899;SDS011;32647;49.382;7.078;2024-02-04T05:19:35;1436.82;;;999.90;;
46899;SDS011;32647;49.382;7.078;2024-02-04T05:22:21;1436.82;;;999.90;;
46899;SDS011;32647;49.382;7.078;2024-02-04T05:25:07;1444.25;;;999.90;;
46899;SDS011;32647;49.382;7.078;2024-02-04T05:27:54;1440.22;;;999.90;;
46899;SDS011;32647;49.382;7.078;2024-02-04T05:30:40;1439.25;;;999.90;;
46899;SDS011;32647;49.382;7.078;2024-02-04T05:33:26;1441.25;;;999.90;;
46899;SDS011;32647;49.382;7.078;2024-02-04T05:36:12;1440.55;;;999.90;;
46899;SDS011;32647;49.382;7.078;2024-02-04T05:39:08;1443.93;;;999.90;;
46899;SDS011;32647;49.382;7.078;2024-02-04T05:41:57;1433.13;;;999.90;;
46899;SDS011;32647;49.382;7.078;2024-02-04T05:44:43;1443.35;;;999.90;;
46899;SDS011;32647;49.382;7.078;2024-02-04T05:47:29;1438.57;;;999.90;;
46899;SDS011;32647;49.382;7.078;2024-02-04T05:50:15;1432.80;;;999.90;;
46899;SDS011;32647;49.382;7.078;2024-02-04T05:53:01;1433.57;;;999.90;;
46899;SDS011;32647;49.382;7.078;2024-02-04T05:55:48;1433.90;;;999.90;;
46899;SDS011;32647;49.382;7.078;2024-02-04T05:58:34;1432.53;;;999.90;;
46899;SDS011;32647;49.382;7.078;2024-02-04T06:01:20;1442.28;;;999.90;;
46899;SDS011;32647;49.382;7.078;2024-02-04T06:04:06;1443.25;;;999.90;;
46899;SDS011;32647;49.382;7.078;2024-02-04T06:06:52;1455.40;;;999.90;;
46899;SDS011;32647;49.382;7.078;2024-02-04T06:09:38;1454.93;;;999.90;;
46899;SDS011;32647;49.382;7.078;2024-02-04T06:12:24;1446.80;;;999.90;;
46899;SDS011;32647;49.382;7.078;2024-02-04T06:15:13;1459.60;;;999.90;;
46899;SDS011;32647;49.382;7.078;2024-02-04T06:18:00;1452.80;;;999.90;;
46899;SDS011;32647;49.382;7.078;2024-02-04T06:20:46;1461.90;;;999.90;;
46899;SDS011;32647;49.382;7.078;2024-02-04T06:23:32;1456.18;;;999.90;;
46899;SDS011;32647;49.382;7.078;2024-02-04T06:26:19;1459.72;;;999.90;;
46899;SDS011;32647;49.382;7.078;2024-02-04T06:29:05;1452.43;;;999.90;;
46899;SDS011;32647;49.382;7.078;2024-02-04T06:31:51;1443.50;;;999.90;;
46899;SDS011;32647;49.382;7.078;2024-02-04T06:34:37;1446.80;;;999.90;;
46899;SDS011;32647;49.382;7.078;2024-02-04T06:37:23;1446.63;;;999.90;;
46899;SDS011;32647;49.382;7.078;2024-02-04T06:40:10;1439.88;;;999.90;;
46899;SDS011;32647;49.382;7.078;2024-02-04T06:42:56;1445.25;;;999.90;;
46899;SDS011;32647;49.382;7.078;2024-02-04T06:45:42;1447.72;;;999.90;;
46899;SDS011;32647;49.382;7.078;2024-02-04T06:48:28;1453.53;;;999.90;;
46899;SDS011;32647;49.382;7.078;2024-02-04T06:51:14;1453.90;;;999.90;;
46899;SDS011;32647;49.382;7.078;2024-02-04T06:54:00;1439.97;;;999.90;;
46899;SDS011;32647;49.382;7.078;2024-02-04T06:56:46;1450.28;;;999.90;;
46899;SDS011;32647;49.382;7.078;2024-02-04T06:59:32;1455.43;;;999.90;;
46899;SDS011;32647;49.382;7.078;2024-02-04T07:02:18;1455.32;;;999.90;;
46899;SDS011;32647;49.382;7.078;2024-02-04T07:05:04;1454.75;;;999.90;;
46899;SDS011;32647;49.382;7.078;2024-02-04T07:07:50;1463.25;;;999.90;;
46899;SDS011;32647;49.382;7.078;2024-02-04T07:10:36;1465.28;;;999.90;;
46899;SDS011;32647;49.382;7.078;2024-02-04T07:13:22;1465.95;;;999.90;;
46899;SDS011;32647;49.382;7.078;2024-02-04T07:16:08;1470.00;;;999.90;;
46899;SDS011;32647;49.382;7.078;2024-02-04T07:18:54;1470.53;;;999.90;;
46899;SDS011;32647;49.382;7.078;2024-02-04T07:21:41;1470.53;;;999.90;;
46899;SDS011;32647;49.382;7.078;2024-02-04T07:24:27;1460.57;;;999.90;;
46899;SDS011;32647;49.382;7.078;2024-02-04T07:27:13;1461.30;;;999.90;;
46899;SDS011;32647;49.382;7.078;2024-02-04T07:29:59;1465.72;;;999.90;;
46899;SDS011;32647;49.382;7.078;2024-02-04T07:32:45;1457.28;;;999.90;;
46899;SDS011;32647;49.382;7.078;2024-02-04T07:35:30;1453.60;;;999.90;;
46899;SDS011;32647;49.382;7.078;2024-02-04T07:38:17;1456.68;;;999.90;;
46899;SDS011;32647;49.382;7.078;2024-02-04T07:41:03;1456.22;;;999.90;;
46899;SDS011;32647;49.382;7.078;2024-02-04T07:43:49;1457.97;;;999.90;;
46899;SDS011;32647;49.382;7.078;2024-02-04T07:46:35;1454.05;;;999.90;;
46899;SDS011;32647;49.382;7.078;2024-02-04T07:49:21;1457.75;;;999.90;;
46899;SDS011;32647;49.382;7.078;2024-02-04T07:52:07;1459.38;;;999.90;;
46899;SDS011;32647;49.382;7.078;2024-02-04T07:54:53;1456.80;;;999.90;;
46899;SDS011;32647;49.382;7.078;2024-02-04T07:57:39;1452.88;;;999.90;;
46899;SDS011;32647;49.382;7.078;2024-02-04T08:00:25;1447.25;;;999.90;;
46899;SDS011;32647;49.382;7.078;2024-02-04T08:03:11;1450.03;;;999.90;;
46899;SDS011;32647;49.382;7.078;2024-02-04T08:05:57;1447.05;;;999.90;;
46899;SDS011;32647;49.382;7.078;2024-02-04T08:08:43;1447.80;;;999.90;;
46899;SDS011;32647;49.382;7.078;2024-02-04T08:11:30;1444.50;;;999.90;;
46899;SDS011;32647;49.382;7.078;2024-02-04T08:14:16;1447.47;;;999.90;;
46899;SDS011;32647;49.382;7.078;2024-02-04T08:17:02;1444.68;;;999.90;;
46899;SDS011;32647;49.382;7.078;2024-02-04T08:19:48;1452.75;;;999.90;;
46899;SDS011;32647;49.382;7.078;2024-02-04T08:22:34;1446.80;;;999.90;;
46899;SDS011;32647;49.382;7.078;2024-02-04T08:25:20;1455.30;;;999.90;;
46899;SDS011;32647;49.382;7.078;2024-02-04T08:28:06;1456.35;;;999.90;;
46899;SDS011;32647;49.382;7.078;2024-02-04T08:30:52;1461.22;;;999.90;;
46899;SDS011;32647;49.382;7.078;2024-02-04T08:33:38;1460.13;;;999.90;;
46899;SDS011;32647;49.382;7.078;2024-02-04T08:36:24;1459.95;;;999.90;;
46899;SDS011;32647;49.382;7.078;2024-02-04T08:39:10;1475.40;;;999.90;;
46899;SDS011;32647;49.382;7.078;2024-02-04T08:41:56;1472.82;;;999.90;;
46899;SDS011;32647;49.382;7.078;2024-02-04T08:44:42;1479.85;;;999.90;;
46899;SDS011;32647;49.382;7.078;2024-02-04T08:47:28;1483.25;;;999.90;;
46899;SDS011;32647;49.382;7.078;2024-02-04T08:50:14;1477.43;;;999.90;;
46899;SDS011;32647;49.382;7.078;2024-02-04T08:53:01;1489.65;;;999.90;;
46899;SDS011;32647;49.382;7.078;2024-02-04T08:55:47;1483.30;;;999.90;;
46899;SDS011;32647;49.382;7.078;2024-02-04T08:58:33;1487.30;;;999.90;;
46899;SDS011;32647;49.382;7.078;2024-02-04T09:01:19;1492.05;;;999.90;;
46899;SDS011;32647;49.382;7.078;2024-02-04T09:04:05;1483.65;;;999.90;;
46899;SDS011;32647;49.382;7.078;2024-02-04T09:06:51;1486.22;;;999.90;;
46899;SDS011;32647;49.382;7.078;2024-02-04T09:09:37;1489.18;;;999.90;;
46899;SDS011;32647;49.382;7.078;2024-02-04T09:12:23;1484.80;;;999.90;;
46899;SDS011;32647;49.382;7.078;2024-02-04T09:15:09;1478.35;;;999.90;;
46899;SDS011;32647;49.382;7.078;2024-02-04T09:17:55;1475.57;;;999.90;;
46899;SDS011;32647;49.382;7.078;2024-02-04T09:20:41;1475.75;;;999.90;;
46899;SDS011;32647;49.382;7.078;2024-02-04T09:23:27;1485.63;;;999.90;;
46899;SDS011;32647;49.382;7.078;2024-02-04T09:26:13;1487.18;;;999.90;;
46899;SDS011;32647;49.382;7.078;2024-02-04T09:28:59;1485.43;;;999.90;;
46899;SDS011;32647;49.382;7.078;2024-02-04T09:31:45;1484.30;;;999.90;;
46899;SDS011;32647;49.382;7.078;2024-02-04T09:34:31;1487.93;;;999.90;;
46899;SDS011;32647;49.382;7.078;2024-02-04T09:37:17;1492.80;;;999.90;;
46899;SDS011;32647;49.382;7.078;2024-02-04T09:40:03;1499.10;;;999.90;;
46899;SDS011;32647;49.382;7.078;2024-02-04T09:42:49;1498.82;;;999.90;;
46899;SDS011;32647;49.382;7.078;2024-02-04T09:45:37;1500.38;;;999.90;;
46899;SDS011;32647;49.382;7.078;2024-02-04T09:48:25;1499.90;;;999.90;;
46899;SDS011;32647;49.382;7.078;2024-02-04T09:51:12;1482.03;;;999.90;;
46899;SDS011;32647;49.382;7.078;2024-02-04T09:53:58;1508.85;;;999.90;;
46899;SDS011;32647;49.382;7.078;2024-02-04T09:56:51;1503.90;;;999.90;;
46899;SDS011;32647;49.382;7.078;2024-02-04T09:59:38;1477.78;;;999.90;;
46899;SDS011;32647;49.382;7.078;2024-02-04T10:02:24;1485.72;;;999.90;;
46899;SDS011;32647;49.382;7.078;2024-02-04T10:05:10;1476.75;;;999.90;;
46899;SDS011;32647;49.382;7.078;2024-02-04T10:07:56;1485.32;;;999.90;;
46899;SDS011;32647;49.382;7.078;2024-02-04T10:10:42;1491.13;;;999.90;;
46899;SDS011;32647;49.382;7.078;2024-02-04T10:13:28;1491.82;;;999.90;;
46899;SDS011;32647;49.382;7.078;2024-02-04T10:16:15;1490.25;;;999.90;;
46899;SDS011;32647;49.382;7.078;2024-02-04T10:19:02;1495.45;;;999.90;;
46899;SDS011;32647;49.382;7.078;2024-02-04T10:21:57;1487.40;;;999.90;;
46899;SDS011;32647;49.382;7.078;2024-02-04T10:24:44;1493.82;;;999.90;;
46899;SDS011;32647;49.382;7.078;2024-02-04T10:27:33;1498.65;;;999.90;;
46899;SDS011;32647;49.382;7.078;2024-02-04T10:30:20;1502.40;;;999.90;;
46899;SDS011;32647;49.382;7.078;2024-02-04T10:33:07;1495.45;;;999.90;;
46899;SDS011;32647;49.382;7.078;2024-02-04T10:35:52;1498.65;;;999.90;;
46899;SDS011;32647;49.382;7.078;2024-02-04T10:38:38;1492.25;;;999.90;;
46899;SDS011;32647;49.382;7.078;2024-02-04T10:41:24;1501.70;;;999.90;;
46899;SDS011;32647;49.382;7.078;2024-02-04T10:44:11;1499.07;;;999.90;;
46899;SDS011;32647;49.382;7.078;2024-02-04T10:47:01;1499.93;;;999.90;;
46899;SDS011;32647;49.382;7.078;2024-02-04T10:49:55;1502.95;;;999.90;;
46899;SDS011;32647;49.382;7.078;2024-02-04T10:52:44;1509.75;;;999.90;;
46899;SDS011;32647;49.382;7.078;2024-02-04T10:55:33;1508.35;;;999.90;;
46899;SDS011;32647;49.382;7.078;2024-02-04T10:58:25;1498.00;;;999.90;;
46899;SDS011;32647;49.382;7.078;2024-02-04T11:01:13;1508.10;;;999.90;;
46899;SDS011;32647;49.382;7.078;2024-02-04T11:03:59;1472.47;;;999.90;;
46899;SDS011;32647;49.382;7.078;2024-02-04T11:06:46;1468.32;;;999.90;;
46899;SDS011;32647;49.382;7.078;2024-02-04T11:09:33;1486.57;;;999.90;;
46899;SDS011;32647;49.382;7.078;2024-02-04T11:12:19;1499.78;;;999.90;;
46899;SDS011;32647;49.382;7.078;2024-02-04T11:15:07;1519.60;;;999.90;;
46899;SDS011;32647;49.382;7.078;2024-02-04T11:26:50;1514.22;;;999.90;;
46899;SDS011;32647;49.382;7.078;2024-02-04T11:29:36;1530.65;;;999.90;;
46899;SDS011;32647;49.382;7.078;2024-02-04T11:32:23;1543.18;;;999.90;;
46899;SDS011;32647;49.382;7.078;2024-02-04T11:35:10;1538.82;;;999.90;;
46899;SDS011;32647;49.382;7.078;2024-02-04T11:37:57;1543.97;;;999.90;;
46899;SDS011;32647;49.382;7.078;2024-02-04T11:40:45;1536.80;;;999.90;;
46899;SDS011;32647;49.382;7.078;2024-02-04T11:43:35;1541.80;;;999.90;;
46899;SDS011;32647;49.382;7.078;2024-02-04T11:46:23;1542.72;;;999.90;;
46899;SDS011;32647;49.382;7.078;2024-02-04T11:49:15;1550.43;;;999.90;;
46899;SDS011;32647;49.382;7.078;2024-02-04T11:52:02;1547.78;;;999.90;;
46899;SDS011;32647;49.382;7.078;2024-02-04T11:54:48;1542.07;;;999.90;;
46899;SDS011;32647;49.382;7.078;2024-02-04T11:57:34;1540.75;;;999.90;;
46899;SDS011;32647;49.382;7.078;2024-02-04T12:00:20;1547.47;;;999.90;;
46899;SDS011;32647;49.382;7.078;2024-02-04T12:03:07;1538.50;;;999.90;;
46899;SDS011;32647;49.382;7.078;2024-02-04T12:05:54;1537.25;;;999.90;;
46899;SDS011;32647;49.382;7.078;2024-02-04T12:08:41;1523.10;;;999.90;;
46899;SDS011;32647;49.382;7.078;2024-02-04T12:11:27;1510.40;;;999.90;;
46899;SDS011;32647;49.382;7.078;2024-02-04T12:14:14;1511.45;;;999.90;;
46899;SDS011;32647;49.382;7.078;2024-02-04T12:17:06;1503.65;;;999.90;;
46899;SDS011;32647;49.382;7.078;2024-02-04T12:19:54;1506.55;;;999.90;;
46899;SDS011;32647;49.382;7.078;2024-02-04T12:22:40;1511.57;;;999.90;;
46899;SDS011;32647;49.382;7.078;2024-02-04T12:25:26;1502.88;;;999.90;;
46899;SDS011;32647;49.382;7.078;2024-02-04T12:28:13;1480.88;;;999.90;;
46899;SDS011;32647;49.382;7.078;2024-02-04T12:30:59;1462.38;;;999.90;;
46899;SDS011;32647;49.382;7.078;2024-02-04T12:33:55;1485.45;;;999.90;;
46899;SDS011;32647;49.382;7.078;2024-02-04T12:36:56;1455.75;;;999.90;;
46899;SDS011;32647;49.382;7.078;2024-02-04T12:39:46;1446.75;;;999.90;;
46899;SDS011;32647;49.382;7.078;2024-02-04T12:42:32;1385.45;;;999.90;;
46899;SDS011;32647;49.382;7.078;2024-02-04T12:45:18;1330.55;;;999.90;;
46899;SDS011;32647;49.382;7.078;2024-02-04T12:48:04;1309.38;;;999.90;;
46899;SDS011;32647;49.382;7.078;2024-02-04T12:50:50;1291.75;;;999.90;;
46899;SDS011;32647;49.382;7.078;2024-02-04T12:53:37;1323.82;;;999.90;;
46899;SDS011;32647;49.382;7.078;2024-02-04T12:56:23;1318.45;;;999.90;;
46899;SDS011;32647;49.382;7.078;2024-02-04T12:59:09;1294.82;;;999.90;;
46899;SDS011;32647;49.382;7.078;2024-02-04T13:02:00;1250.55;;;999.90;;
46899;SDS011;32647;49.382;7.078;2024-02-04T13:04:50;1174.27;;;999.90;;
46899;SDS011;32647;49.382;7.078;2024-02-04T13:07:36;1129.05;;;999.90;;
46899;SDS011;32647;49.382;7.078;2024-02-04T13:10:23;1126.95;;;999.90;;
46899;SDS011;32647;49.382;7.078;2024-02-04T13:13:12;1160.05;;;999.90;;
46899;SDS011;32647;49.382;7.078;2024-02-04T13:15:59;1137.20;;;999.90;;
46899;SDS011;32647;49.382;7.078;2024-02-04T13:18:51;1012.40;;;972.08;;
46899;SDS011;32647;49.382;7.078;2024-02-04T13:21:38;950.58;;;913.30;;
46899;SDS011;32647;49.382;7.078;2024-02-04T13:24:24;839.38;;;807.45;;
46899;SDS011;32647;49.382;7.078;2024-02-04T13:27:10;800.53;;;770.22;;
46899;SDS011;32647;49.382;7.078;2024-02-04T13:29:56;892.30;;;858.03;;
46899;SDS011;32647;49.382;7.078;2024-02-04T13:32:42;649.10;;;624.53;;
46899;SDS011;32647;49.382;7.078;2024-02-04T13:35:28;633.85;;;609.95;;
46899;SDS011;32647;49.382;7.078;2024-02-04T13:38:15;553.65;;;532.63;;
46899;SDS011;32647;49.382;7.078;2024-02-04T13:41:01;557.55;;;536.30;;
46899;SDS011;32647;49.382;7.078;2024-02-04T13:43:49;653.42;;;628.83;;
46899;SDS011;32647;49.382;7.078;2024-02-04T13:46:35;479.10;;;460.67;;
46899;SDS011;32647;49.382;7.078;2024-02-04T13:49:22;357.77;;;343.60;;
46899;SDS011;32647;49.382;7.078;2024-02-04T13:52:08;170.07;;;162.73;;
46899;SDS011;32647;49.382;7.078;2024-02-04T13:54:54;145.38;;;139.13;;
46899;SDS011;32647;49.382;7.078;2024-02-04T13:57:40;187.43;;;179.65;;
46899;SDS011;32647;49.382;7.078;2024-02-04T14:00:26;176.70;;;169.32;;
46899;SDS011;32647;49.382;7.078;2024-02-04T14:03:12;112.65;;;107.75;;
46899;SDS011;32647;49.382;7.078;2024-02-04T14:05:58;131.18;;;125.43;;
46899;SDS011;32647;49.382;7.078;2024-02-04T14:08:48;103.95;;;99.45;;
46899;SDS011;32647;49.382;7.078;2024-02-04T14:11:34;103.45;;;98.95;;
46899;SDS011;32647;49.382;7.078;2024-02-04T14:14:23;95.07;;;90.93;;
46899;SDS011;32647;49.382;7.078;2024-02-04T14:17:09;101.88;;;97.22;;
46899;SDS011;32647;49.382;7.078;2024-02-04T14:19:55;94.38;;;90.28;;
46899;SDS011;32647;49.382;7.078;2024-02-04T14:22:43;82.80;;;79.20;;
46899;SDS011;32647;49.382;7.078;2024-02-04T14:25:29;79.50;;;75.95;;
46899;SDS011;32647;49.382;7.078;2024-02-04T14:28:15;72.72;;;69.45;;
46899;SDS011;32647;49.382;7.078;2024-02-04T14:31:01;67.85;;;64.75;;
46899;SDS011;32647;49.382;7.078;2024-02-04T14:33:47;68.82;;;65.72;;
46899;SDS011;32647;49.382;7.078;2024-02-04T14:36:33;81.50;;;77.85;;
46899;SDS011;32647;49.382;7.078;2024-02-04T14:39:19;51.88;;;49.45;;
46899;SDS011;32647;49.382;7.078;2024-02-04T14:42:05;62.83;;;60.03;;
46899;SDS011;32647;49.382;7.078;2024-02-04T14:44:51;44.40;;;42.40;;
46899;SDS011;32647;49.382;7.078;2024-02-04T14:47:38;32.80;;;31.30;;
46899;SDS011;32647;49.382;7.078;2024-02-04T14:50:24;33.08;;;31.58;;
46899;SDS011;32647;49.382;7.078;2024-02-04T14:53:10;28.10;;;26.80;;
46899;SDS011;32647;49.382;7.078;2024-02-04T14:55:56;35.08;;;33.47;;
46899;SDS011;32647;49.382;7.078;2024-02-04T14:58:42;37.42;;;35.72;;
46899;SDS011;32647;49.382;7.078;2024-02-04T15:01:28;43.63;;;41.65;;
46899;SDS011;32647;49.382;7.078;2024-02-04T15:04:14;56.50;;;53.97;;
46899;SDS011;32647;49.382;7.078;2024-02-04T15:07:00;56.75;;;54.15;;
46899;SDS011;32647;49.382;7.078;2024-02-04T15:09:49;57.40;;;54.80;;
46899;SDS011;32647;49.382;7.078;2024-02-04T15:12:39;58.33;;;55.35;;
46899;SDS011;32647;49.382;7.078;2024-02-04T15:15:25;48.55;;;46.35;;
46899;SDS011;32647;49.382;7.078;2024-02-04T15:18:11;43.22;;;41.22;;
46899;SDS011;32647;49.382;7.078;2024-02-04T15:20:58;46.20;;;44.10;;
46899;SDS011;32647;49.382;7.078;2024-02-04T15:23:44;41.58;;;39.67;;
46899;SDS011;32647;49.382;7.078;2024-02-04T15:26:34;39.75;;;37.90;;
46899;SDS011;32647;49.382;7.078;2024-02-04T15:29:22;45.47;;;43.40;;
46899;SDS011;32647;49.382;7.078;2024-02-04T15:32:08;51.08;;;48.75;;
46899;SDS011;32647;49.382;7.078;2024-02-04T15:34:54;43.70;;;41.70;;
46899;SDS011;32647;49.382;7.078;2024-02-04T15:37:41;48.97;;;46.78;;
46899;SDS011;32647;49.382;7.078;2024-02-04T15:40:27;53.58;;;51.17;;
46899;SDS011;32647;49.382;7.078;2024-02-04T15:45:48;47.33;;;45.13;;
46899;SDS011;32647;49.382;7.078;2024-02-04T15:48:35;49.88;;;47.58;;
46899;SDS011;32647;49.382;7.078;2024-02-04T15:51:23;45.33;;;43.22;;
46899;SDS011;32647;49.382;7.078;2024-02-04T15:54:11;52.83;;;50.42;;